Blue Horizons Flying Club, Inc.

Radar AviationWeather DUATS TFRs Wunderground Accuweather Weather.com

alt : Radar

TAFs

KJXN 020540Z 0206/0306 24008KT P6SM SCT050
   FM020700 23004KT 5SM BR VCSH BKN050
   FM021100 23003KT 2SM BR VCSH BKN015
   FM021500 26007KT P6SM BKN025
   FM021700 28008KT P6SM SCT040
   FM022300 25005KT P6SM SKC
KDTW 020539Z 0206/0312 22005KT P6SM FEW045 BKN200
   FM020800 23005KT 5SM BR SCT015 BKN060
     TEMPO 0211/0214 4SM -SHRA BR BKN015
   FM021400 25007KT P6SM SCT020 BKN040
   FM021700 26012KT P6SM SCT045
   FM030000 27005KT P6SM SCT060
   FM030800 VRB03KT 6SM HZ FEW060
KFWA 020529Z 0206/0306 23011KT P6SM SCT040 BKN100
   FM020800 26003KT 6SM -RA BR SCT035 OVC070
     TEMPO 0210/0213 3SM -RA BR
   FM021500 27008KT P6SM SCT035
   FM030100 28003KT P6SM SCT250
KFDY 020520Z 0206/0306 22007KT P6SM SCT045 BKN250
     TEMPO 0206/0210 BKN045
   FM021000 23005KT 6SM -SHRA BR VCTS OVC035CB
     TEMPO 0210/0214 4SM SHRA BR OVC012
   FM021400 24011KT P6SM BKN015 BKN080
   FM021700 25011KT P6SM SCT080 BKN250
   FM022100 24008KT P6SM SCT250
   FM030200 22003KT 5SM HZ SCT250
KTOL 020520Z 0206/0306 22007KT P6SM SCT045 BKN250
     TEMPO 0206/0210 BKN045
   FM021000 23007KT 6SM -SHRA OVC035
     TEMPO 0210/0214 5SM -SHRA BR OVC015
   FM021400 25010KT P6SM BKN015 BKN080
   FM021700 25011KT P6SM SCT080 BKN250
   FM022100 25008KT P6SM SCT250
   FM030200 25003KT 5SM HZ SCT250
KCLE 020520Z 0206/0312 20009KT P6SM SCT045
     TEMPO 0206/0210 BKN045
   FM021000 23010KT P6SM BKN045
   FM021200 23010KT 6SM -SHRA BR VCTS SCT025CB BKN045
     TEMPO 0212/0216 4SM -SHRA BR BKN025
   FM021600 24012KT P6SM VCSH BKN025
   FM022000 25010KT P6SM BKN050
   FM022200 25008KT P6SM SCT050 BKN250
   FM030200 22005KT P6SM SCT120 BKN250
   FM030800 20004KT 5SM BR SCT250

METARs

KDUH 020635Z AUTO 23008KT 10SM CLR 23/18 A2988 RMK AO2
KFWA 020554Z 22005KT 10SM FEW120 BKN200 20/18 A2990 RMK AO2 SLP121 T02000178 10256 20194 50002
KDTW 020553Z 20005KT 8SM SCT045 BKN200 22/21 A2985 RMK AO2 SLP105 T02170206 10244 20217 50005 $
KFDY 020553Z AUTO 23009KT 10SM CLR 23/21 A2991 RMK AO2 SLP117 T02280206 10261 20228 51011
KTDZ 020553Z AUTO 22007KT 10SM CLR 23/20 A2989 RMK AO2 SLP116 T02280200 10256 20228 51008 TSNO
KTOL 020552Z AUTO 23007KT 10SM CLR 23/19 A2988 RMK AO2 SLP113 T02280189 10256 20228 51008
KCLE 020551Z 21009KT 10SM SCT029 BKN250 24/21 A2992 RMK AO2 SLP126 T02390206 10267 20239 51006

alt : Satellite

alt : TFRs